Terminal Aerodrome Forecast
Issued by NWS

Home | Current Version | Previous Version | Graphics & Text | Print | Product List | Glossary On
Versions: 1 2 3 4 5 6 7 8 9 10 11 12 13 14 15 16
000
FTUS43 KICT 170542
TAFHUT
TAF
KHUT 170542Z 1706/1806 30008KT P6SM OVC008
     FM170900 31008KT P6SM OVC015
     FM171000 31008KT P6SM BKN025
     FM171100 31007KT P6SM SCT030 BKN080
     FM172100 28006KT P6SM SCT100=

USA.gov is the U.S. government's official web portal to all federal, state and local government web resources and services.